createdAt,value
2017-06-02T00:00:48.365Z,6.71
2017-06-02T00:01:48.351Z,6.72
2017-06-02T00:02:48.342Z,6.78
2017-06-02T00:03:48.398Z,6.83
2017-06-02T00:04:48.325Z,6.81
2017-06-02T00:05:48.311Z,6.93
2017-06-02T00:06:48.303Z,6.86
2017-06-02T00:07:47.993Z,6.76
2017-06-02T00:08:48.282Z,6.65
2017-06-02T00:09:48.272Z,6.68
2017-06-02T00:10:48.263Z,6.64
2017-06-02T00:11:48.257Z,6.61
2017-06-02T00:12:48.241Z,6.68
2017-06-02T00:13:48.229Z,6.63
2017-06-02T00:14:47.920Z,6.71
2017-06-02T00:15:48.211Z,6.78
2017-06-02T00:16:48.201Z,6.75
2017-06-02T00:17:48.190Z,6.76
2017-06-02T00:18:48.179Z,6.73
2017-06-02T00:19:48.168Z,6.72
2017-06-02T00:21:01.547Z,6.75
2017-06-02T00:21:48.149Z,6.69
2017-06-02T00:22:48.135Z,6.76
2017-06-02T00:23:48.124Z,6.72
2017-06-02T00:24:48.121Z,6.72
2017-06-02T00:25:48.319Z,6.69
2017-06-02T00:27:01.483Z,6.73
2017-06-02T00:27:47.785Z,6.73
2017-06-02T00:28:48.076Z,6.55
2017-06-02T00:29:47.766Z,6.58
2017-06-02T00:30:48.053Z,6.63
2017-06-02T00:31:48.050Z,6.6
2017-06-02T00:32:47.734Z,6.65
2017-06-02T00:33:48.024Z,6.6
2017-06-02T00:34:48.013Z,6.61
2017-06-02T00:35:48.005Z,6.58
2017-06-02T00:36:48.001Z,6.58
2017-06-02T00:37:47.983Z,6.55
2017-06-02T00:38:47.669Z,6.54
2017-06-02T00:39:47.966Z,6.5
2017-06-02T00:40:47.953Z,6.42
2017-06-02T00:41:47.949Z,6.35
2017-06-02T00:42:47.945Z,6.27
2017-06-02T00:43:47.922Z,6.24
2017-06-02T00:44:47.911Z,6.16
2017-06-02T00:45:47.901Z,6.16
2017-06-02T00:46:47.895Z,6.17
2017-06-02T00:47:47.882Z,6.08
2017-06-02T00:48:47.870Z,6.02
2017-06-02T00:49:47.860Z,6.13
2017-06-02T00:50:47.846Z,6.06
2017-06-02T00:51:47.838Z,6.1
2017-06-02T00:52:47.830Z,6.05
2017-06-02T00:53:47.827Z,6.06
2017-06-02T00:54:47.808Z,6.06
2017-06-02T00:55:47.794Z,6.06
2017-06-02T00:56:47.785Z,5.99
2017-06-02T00:57:47.989Z,5.92
2017-06-02T00:58:47.768Z,5.92
2017-06-02T00:59:47.754Z,5.92
2017-06-02T01:00:47.744Z,5.84
2017-06-02T01:01:47.737Z,5.83
2017-06-02T01:03:01.103Z,5.77
2017-06-02T01:04:01.599Z,5.81
2017-06-02T01:04:47.701Z,5.81
2017-06-02T01:05:47.687Z,5.84
2017-06-02T01:06:47.676Z,5.87
2017-06-02T01:07:47.665Z,5.8
2017-06-02T01:08:47.654Z,5.81
2017-06-02T01:09:47.643Z,5.81
2017-06-02T01:10:47.632Z,5.78
2017-06-02T01:11:47.621Z,5.88
2017-06-02T01:12:47.307Z,5.77
2017-06-02T01:13:47.653Z,5.84
2017-06-02T01:14:47.284Z,5.83
2017-06-02T01:15:47.577Z,5.81
2017-06-02T01:16:47.261Z,5.8
2017-06-02T01:17:47.252Z,5.84
2017-06-02T01:18:47.546Z,5.81
2017-06-02T01:19:47.527Z,5.9
2017-06-02T01:20:47.523Z,5.81
2017-06-02T01:21:47.206Z,5.8
2017-06-02T01:22:47.197Z,5.81
2017-06-02T01:23:47.486Z,5.83
2017-06-02T01:24:47.471Z,5.93
2017-06-02T01:25:47.161Z,5.98
2017-06-02T01:26:47.165Z,5.93
2017-06-02T01:27:47.445Z,5.92
2017-06-02T01:28:47.127Z,6.02
2017-06-02T01:29:47.119Z,5.96
2017-06-02T01:30:47.105Z,5.95
2017-06-02T01:31:47.098Z,6.01
2017-06-02T01:32:47.392Z,6.03
2017-06-02T01:33:47.376Z,6.01
2017-06-02T01:34:47.062Z,5.95
2017-06-02T01:35:47.353Z,5.95
2017-06-02T01:36:47.345Z,5.93
2017-06-02T01:37:47.337Z,5.99
2017-06-02T01:38:47.322Z,5.96
2017-06-02T01:39:47.507Z,6.1
2017-06-02T01:40:47.295Z,5.99
2017-06-02T01:41:46.983Z,6.03
2017-06-02T01:42:47.280Z,6.13
2017-06-02T01:43:47.264Z,6.08
2017-06-02T01:44:47.257Z,6.06
2017-06-02T01:45:47.245Z,6.1
2017-06-02T01:46:47.229Z,6.13
2017-06-02T01:47:47.226Z,6.05
2017-06-02T01:48:47.215Z,6.02
2017-06-02T01:49:47.199Z,6.11
2017-06-02T01:50:47.188Z,6.05
2017-06-02T01:51:47.183Z,6.01
2017-06-02T01:52:47.167Z,6.2
2017-06-02T01:53:46.868Z,6.19
2017-06-02T01:54:46.845Z,6.21
2017-06-02T01:55:47.138Z,6.27
2017-06-02T01:56:47.125Z,6.38
2017-06-02T01:57:47.124Z,6.43
2017-06-02T01:58:47.107Z,6.51
2017-06-02T01:59:47.098Z,6.53
2017-06-02T02:00:46.784Z,6.58
2017-06-02T02:01:47.076Z,6.5
2017-06-02T02:02:47.065Z,6.42
2017-06-02T02:03:46.760Z,6.5
2017-06-02T02:04:46.747Z,6.53
2017-06-02T02:05:46.734Z,6.53
2017-06-02T02:06:46.722Z,6.33
2017-06-02T02:07:47.018Z,6.33
2017-06-02T02:08:47.007Z,6.2
2017-06-02T02:09:46.993Z,6.24
2017-06-02T02:10:46.988Z,6.16
2017-06-02T02:11:47.037Z,6.17
2017-06-02T02:12:46.971Z,6.24
2017-06-02T02:13:46.960Z,6.17
2017-06-02T02:14:46.951Z,6.1
2017-06-02T02:15:46.954Z,6.17
2017-06-02T02:16:46.933Z,6.03
2017-06-02T02:17:46.914Z,6.02
2017-06-02T02:18:46.604Z,5.99
2017-06-02T02:19:46.896Z,5.92
2017-06-02T02:20:46.902Z,5.92
2017-06-02T02:21:46.878Z,5.92
2017-06-02T02:22:46.868Z,5.93
2017-06-02T02:23:46.905Z,5.95
2017-06-02T02:24:46.845Z,6.11
2017-06-02T02:25:46.837Z,6.13
2017-06-02T02:26:46.826Z,6.13
2017-06-02T02:27:46.814Z,6.16
2017-06-02T02:28:46.502Z,6.25
2017-06-02T02:29:46.798Z,6.27
2017-06-02T02:30:46.786Z,6.38
2017-06-02T02:31:46.777Z,6.36
2017-06-02T02:32:46.763Z,6.54
2017-06-02T02:33:46.755Z,6.57
2017-06-02T02:34:46.742Z,6.68
2017-06-02T02:35:46.732Z,6.69
2017-06-02T02:36:46.728Z,6.58
2017-06-02T02:37:46.713Z,6.73
2017-06-02T02:38:46.705Z,6.93
2017-06-02T02:39:46.392Z,7.07
2017-06-02T02:40:46.697Z,7.32
2017-06-02T02:41:46.674Z,7.44
2017-06-02T02:42:46.666Z,7.47
2017-06-02T02:43:46.654Z,7.57
2017-06-02T02:44:46.344Z,7.52
2017-06-02T02:45:46.636Z,7.6
2017-06-02T02:46:46.624Z,7.04
2017-06-02T02:47:46.620Z,6.57
2017-06-02T02:48:46.308Z,6.17
2017-06-02T02:49:46.597Z,5.92
2017-06-02T02:50:46.585Z,5.78
2017-06-02T02:51:46.579Z,5.81
2017-06-02T02:52:46.569Z,5.81
2017-06-02T02:53:46.557Z,5.81
2017-06-02T02:54:46.550Z,5.83
2017-06-02T02:55:46.540Z,5.93
2017-06-02T02:56:46.532Z,5.98
2017-06-02T02:57:46.517Z,6.03
2017-06-02T02:58:46.507Z,6.05
2017-06-02T02:59:46.496Z,6.19
2017-06-02T03:00:46.490Z,6.2
2017-06-02T03:01:46.478Z,6.24
2017-06-02T03:02:46.472Z,6.17
2017-06-02T03:03:46.460Z,6.08
2017-06-02T03:04:46.450Z,6.33
2017-06-02T03:05:46.440Z,6.51
2017-06-02T03:06:46.431Z,6.57
2017-06-02T03:07:46.420Z,6.71
2017-06-02T03:08:46.408Z,6.91
2017-06-02T03:09:46.404Z,6.99
2017-06-02T03:10:46.390Z,7.09
2017-06-02T03:11:46.082Z,6.94
2017-06-02T03:12:46.069Z,6.87
2017-06-02T03:13:46.061Z,6.89
2017-06-02T03:14:46.361Z,6.55
2017-06-02T03:15:46.339Z,6.36
2017-06-02T03:16:46.335Z,6.3
2017-06-02T03:17:46.321Z,6.42
2017-06-02T03:18:46.315Z,6.61
2017-06-02T03:19:46.303Z,6.76
2017-06-02T03:20:46.292Z,6.82
2017-06-02T03:21:46.289Z,6.94
2017-06-02T03:22:46.275Z,6.94
2017-06-02T03:23:46.261Z,6.99
2017-06-02T03:24:46.256Z,7.04
2017-06-02T03:25:46.247Z,6.82
2017-06-02T03:26:46.239Z,6.55
2017-06-02T03:27:46.225Z,6.45
2017-06-02T03:28:46.216Z,6.54
2017-06-02T03:29:46.207Z,6.53
2017-06-02T03:30:46.200Z,6.35
2017-06-02T03:31:46.196Z,6.32
2017-06-02T03:32:46.175Z,6.16
2017-06-02T03:33:45.565Z,6.11
2017-06-02T03:34:46.159Z,6.05
2017-06-02T03:35:46.154Z,6.25
2017-06-02T03:36:46.154Z,6.33
2017-06-02T03:37:46.129Z,6.38
2017-06-02T03:38:46.119Z,6.53
2017-06-02T03:39:46.109Z,6.58
2017-06-02T03:40:46.098Z,6.54
2017-06-02T03:41:46.089Z,6.54
2017-06-02T03:42:46.084Z,6.46
2017-06-02T03:43:46.128Z,6.33
2017-06-02T03:44:46.063Z,6.33
2017-06-02T03:45:46.050Z,6.35
2017-06-02T03:46:46.040Z,6.27
2017-06-02T03:47:45.728Z,6.19
2017-06-02T03:48:46.018Z,6.25
2017-06-02T03:49:46.007Z,6.24
2017-06-02T03:50:46.001Z,6.16
2017-06-02T03:51:45.991Z,6.2
2017-06-02T03:52:45.986Z,6.32
2017-06-02T03:53:45.971Z,6.21
2017-06-02T03:54:45.660Z,6.14
2017-06-02T03:55:45.949Z,6.11
2017-06-02T03:56:45.645Z,6.14
2017-06-02T03:57:45.930Z,6.14
2017-06-02T03:58:45.618Z,6.13
2017-06-02T03:59:45.910Z,6.08
2017-06-02T04:00:45.903Z,6.06
2017-06-02T04:01:45.887Z,6.05
2017-06-02T04:02:45.877Z,6.06
2017-06-02T04:03:45.566Z,6.05
2017-06-02T04:04:45.557Z,6.02
2017-06-02T04:05:45.847Z,5.95
2017-06-02T04:06:45.838Z,6.01
2017-06-02T04:07:45.822Z,5.93
2017-06-02T04:08:45.816Z,6.11
2017-06-02T04:09:45.797Z,6.02
2017-06-02T04:10:45.794Z,5.99
2017-06-02T04:11:45.479Z,5.98
2017-06-02T04:12:45.770Z,5.95
2017-06-02T04:13:45.757Z,6.01
2017-06-02T04:14:45.744Z,6.01
2017-06-02T04:15:45.736Z,6.02
2017-06-02T04:16:45.729Z,5.98
2017-06-02T04:17:45.716Z,5.99
2017-06-02T04:18:45.706Z,6.03
2017-06-02T04:19:45.387Z,5.96
2017-06-02T04:20:45.679Z,6.02
2017-06-02T04:21:45.671Z,5.99
2017-06-02T04:22:45.661Z,6.01
2017-06-02T04:23:45.344Z,6.01
2017-06-02T04:24:45.638Z,5.96
2017-06-02T04:25:45.628Z,5.99
2017-06-02T04:26:45.611Z,5.95
2017-06-02T04:27:45.601Z,5.98
2017-06-02T04:28:45.594Z,6.06
2017-06-02T04:29:45.579Z,5.96
2017-06-02T04:30:45.571Z,6.01
2017-06-02T04:31:45.558Z,5.96
2017-06-02T04:32:45.545Z,5.98
2017-06-02T04:33:45.234Z,5.93
2017-06-02T04:34:45.524Z,6.03
2017-06-02T04:35:45.259Z,6.01
2017-06-02T04:36:45.504Z,5.99
2017-06-02T04:37:45.494Z,5.98
2017-06-02T04:38:45.478Z,5.98
2017-06-02T04:39:45.463Z,6.05
2017-06-02T04:40:45.456Z,6.02
2017-06-02T04:41:45.146Z,5.99
2017-06-02T04:42:45.431Z,6.06
2017-06-02T04:43:45.420Z,5.98
2017-06-02T04:44:45.412Z,6.1
2017-06-02T04:45:45.403Z,6.03
2017-06-02T04:46:45.388Z,6.03
2017-06-02T04:47:45.075Z,6.05
2017-06-02T04:48:45.365Z,6.03
2017-06-02T04:49:45.352Z,6.1
2017-06-02T04:50:45.343Z,6.05
2017-06-02T04:51:45.334Z,5.95
2017-06-02T04:52:45.338Z,5.95
2017-06-02T04:53:45.007Z,6.02
2017-06-02T04:54:44.997Z,6.05
2017-06-02T04:55:45.294Z,6.05
2017-06-02T04:56:45.277Z,6.06
2017-06-02T04:57:45.267Z,6.08
2017-06-02T04:58:45.254Z,6.02
2017-06-02T04:59:45.248Z,6.08
2017-06-02T05:00:45.249Z,6.13
2017-06-02T05:01:45.221Z,6.27
2017-06-02T05:02:44.908Z,6.2
2017-06-02T05:03:45.200Z,6.33
2017-06-02T05:04:45.185Z,6.27
2017-06-02T05:05:44.873Z,6.25
2017-06-02T05:06:45.170Z,6.25
2017-06-02T05:07:45.157Z,6.27
2017-06-02T05:08:45.151Z,6.32
2017-06-02T05:09:45.134Z,6.3
2017-06-02T05:10:45.121Z,6.36
2017-06-02T05:11:45.110Z,6.35
2017-06-02T05:12:45.099Z,6.24
2017-06-02T05:13:45.090Z,6.21
2017-06-02T05:14:44.777Z,6.27
2017-06-02T05:15:45.065Z,6.25
2017-06-02T05:16:45.060Z,6.28
2017-06-02T05:17:45.046Z,6.28
2017-06-02T05:18:45.031Z,6.25
2017-06-02T05:19:45.023Z,6.28
2017-06-02T05:20:45.025Z,6.32
2017-06-02T05:21:45.005Z,6.39
2017-06-02T05:22:44.690Z,6.33
2017-06-02T05:23:44.978Z,6.42
2017-06-02T05:24:44.968Z,6.55
2017-06-02T05:25:44.656Z,6.69
2017-06-02T05:26:44.947Z,6.73
2017-06-02T05:27:44.937Z,6.65
2017-06-02T05:28:44.921Z,6.6
2017-06-02T05:29:44.914Z,6.53
2017-06-02T05:30:44.904Z,6.4
2017-06-02T05:31:44.592Z,6.42
2017-06-02T05:32:44.578Z,6.33
2017-06-02T05:33:44.870Z,6.35
2017-06-02T05:34:44.557Z,6.39
2017-06-02T05:35:44.545Z,6.4
2017-06-02T05:36:44.833Z,6.42
2017-06-02T05:37:44.821Z,6.5
2017-06-02T05:38:44.812Z,6.48
2017-06-02T05:39:44.804Z,6.53
2017-06-02T05:40:44.786Z,6.55
2017-06-02T05:41:44.777Z,6.63
2017-06-02T05:42:44.772Z,6.55
2017-06-02T05:43:44.753Z,6.69
2017-06-02T05:44:44.445Z,6.57
2017-06-02T05:45:44.431Z,6.53
2017-06-02T05:46:44.726Z,6.58
2017-06-02T05:47:44.717Z,6.54
2017-06-02T05:48:44.702Z,6.55
2017-06-02T05:49:44.687Z,6.58
2017-06-02T05:50:44.681Z,6.63
2017-06-02T05:51:44.669Z,6.57
2017-06-02T05:52:44.659Z,6.63
2017-06-02T05:53:44.644Z,6.76
2017-06-02T05:54:44.641Z,6.72
2017-06-02T05:55:44.321Z,6.83
2017-06-02T05:56:44.616Z,6.73
2017-06-02T05:57:44.313Z,6.81
2017-06-02T05:58:44.590Z,6.82
2017-06-02T05:59:44.578Z,6.83
2017-06-02T06:00:44.572Z,6.76
2017-06-02T06:01:44.559Z,6.79
2017-06-02T06:02:44.547Z,6.81
2017-06-02T06:03:44.537Z,6.86
2017-06-02T06:04:44.526Z,6.81
2017-06-02T06:05:44.519Z,6.93
2017-06-02T06:06:44.509Z,6.99
2017-06-02T06:07:44.497Z,6.89
2017-06-02T06:08:44.485Z,6.83
2017-06-02T06:09:44.475Z,6.91
2017-06-02T06:10:44.467Z,6.87
2017-06-02T06:11:44.456Z,6.86
2017-06-02T06:12:44.141Z,6.83
2017-06-02T06:13:44.430Z,6.86
2017-06-02T06:14:44.426Z,6.89
2017-06-02T06:15:44.415Z,6.97
2017-06-02T06:16:44.398Z,7.12
2017-06-02T06:17:44.391Z,7.26
2017-06-02T06:18:44.391Z,7.3
2017-06-02T06:19:44.374Z,7.3
2017-06-02T06:20:44.363Z,7.15
2017-06-02T06:21:44.351Z,7.09
2017-06-02T06:22:44.341Z,7.11
2017-06-02T06:23:44.328Z,7.08
2017-06-02T06:24:44.317Z,7.16
2017-06-02T06:25:44.308Z,7.27
2017-06-02T06:26:43.993Z,7.36
2017-06-02T06:27:44.289Z,7.52
2017-06-02T06:28:44.279Z,7.73
2017-06-02T06:29:44.266Z,7.99
2017-06-02T06:30:44.253Z,8.02
2017-06-02T06:31:44.288Z,7.91
2017-06-02T06:32:44.236Z,7.94
2017-06-02T06:33:44.226Z,7.92
2017-06-02T06:34:44.289Z,7.99
2017-06-02T06:35:44.210Z,8.03
2017-06-02T06:36:44.199Z,8.03
2017-06-02T06:37:44.189Z,8.25
2017-06-02T06:38:44.177Z,8.07
2017-06-02T06:39:44.165Z,7.86
2017-06-02T06:40:44.158Z,7.55
2017-06-02T06:41:43.847Z,7.33
2017-06-02T06:42:44.136Z,7.26
2017-06-02T06:43:44.130Z,7.41
2017-06-02T06:44:44.118Z,7.52
2017-06-02T06:48:02.997Z,7.26
2017-06-02T06:48:43.779Z,7.32
2017-06-02T06:49:44.075Z,7.57
2017-06-02T06:50:44.062Z,7.66
2017-06-02T06:51:44.051Z,7.54
2017-06-02T06:52:44.046Z,7.52
2017-06-02T06:53:43.730Z,7.81
2017-06-02T06:54:44.029Z,8.02
2017-06-02T06:55:44.045Z,8.17
2017-06-02T06:56:44.011Z,8.36
2017-06-02T06:57:44.060Z,8.46
2017-06-02T06:58:43.990Z,8.54
2017-06-02T06:59:43.981Z,8.91
2017-06-02T07:00:43.974Z,9.1
2017-06-02T07:01:43.964Z,9.27
2017-06-02T07:02:43.955Z,9.35
2017-06-02T07:03:43.946Z,8.97
2017-06-02T07:04:43.935Z,8.65
2017-06-02T07:05:43.929Z,8.67
2017-06-02T07:06:43.919Z,8.65
2017-06-02T07:07:43.911Z,8.57
2017-06-02T07:08:43.899Z,8.49
2017-06-02T07:09:43.592Z,8.49
2017-06-02T07:10:43.881Z,8.32
2017-06-02T07:11:43.874Z,8.27
2017-06-02T07:12:43.882Z,8.42
2017-06-02T07:13:43.862Z,8.75
2017-06-02T07:14:43.847Z,8.98
2017-06-02T07:15:43.838Z,9.22
2017-06-02T07:16:43.529Z,9.4
2017-06-02T07:17:43.522Z,9.65
2017-06-02T07:18:43.814Z,9.8
2017-06-02T07:19:43.809Z,9.98
2017-06-02T07:20:43.795Z,10.13
2017-06-02T07:21:43.790Z,10.2
2017-06-02T07:22:43.781Z,10.24
2017-06-02T07:23:43.477Z,10.22
2017-06-02T07:24:43.765Z,10.34
2017-06-02T07:25:43.757Z,10.43
2017-06-02T07:26:43.755Z,10.25
2017-06-02T07:27:43.741Z,10.22
2017-06-02T07:28:43.734Z,10.46
2017-06-02T07:29:43.726Z,10.66
2017-06-02T07:30:43.771Z,10.51
2017-06-02T07:31:43.711Z,10.63
2017-06-02T07:32:43.703Z,10.52
2017-06-02T07:33:43.697Z,10.46
2017-06-02T07:34:43.685Z,10.66
2017-06-02T07:35:43.379Z,10.68
2017-06-02T07:36:43.368Z,10.93
2017-06-02T07:37:43.663Z,11.02
2017-06-02T07:38:43.654Z,11.13
2017-06-02T07:39:43.346Z,10.88
2017-06-02T07:40:43.640Z,11.06
2017-06-02T07:41:43.633Z,11.12
2017-06-02T07:42:43.321Z,10.88
2017-06-02T07:43:43.616Z,10.99
2017-06-02T07:44:43.307Z,11.35
2017-06-02T07:45:43.601Z,11.67
2017-06-02T07:46:43.293Z,11.98
2017-06-02T07:47:43.587Z,12.03
2017-06-02T07:48:43.578Z,11.94
2017-06-02T07:49:43.274Z,11.13
2017-06-02T07:50:43.566Z,10.72
2017-06-02T07:51:43.558Z,10.55
2017-06-02T07:52:43.249Z,10.83
2017-06-02T07:53:43.543Z,10.95
2017-06-02T07:54:43.536Z,11.28
2017-06-02T07:55:43.527Z,11.94
2017-06-02T07:56:43.517Z,12.18
2017-06-02T07:57:43.516Z,12.41
2017-06-02T07:58:43.508Z,12.41
2017-06-02T07:59:43.528Z,12.52
2017-06-02T08:00:43.496Z,12.58
2017-06-02T08:01:43.490Z,12.95
2017-06-02T08:02:43.482Z,12.96
2017-06-02T08:03:43.477Z,13.1
2017-06-02T08:04:43.464Z,13.06
2017-06-02T08:05:43.467Z,13.04
2017-06-02T08:06:43.457Z,12.98
2017-06-02T08:07:43.443Z,12.74
2017-06-02T08:08:43.440Z,12.59
2017-06-02T08:09:43.435Z,12.59
2017-06-02T08:10:43.425Z,12.59
2017-06-02T08:11:43.119Z,12.41
2017-06-02T08:12:43.111Z,12.33
2017-06-02T08:13:43.106Z,12.21
2017-06-02T08:14:43.402Z,12.15
2017-06-02T08:15:43.393Z,12.26
2017-06-02T08:16:43.087Z,12.43
2017-06-02T08:17:43.379Z,12.63
2017-06-02T08:18:43.371Z,12.61
2017-06-02T08:19:43.367Z,12.61
2017-06-02T08:20:43.361Z,12.59
2017-06-02T08:21:43.351Z,12.62
2017-06-02T08:22:43.347Z,12.8
2017-06-02T08:23:43.358Z,12.62
2017-06-02T08:24:43.335Z,12.7
2017-06-02T08:25:43.325Z,12.73
2017-06-02T08:26:43.316Z,12.77
2017-06-02T08:27:43.311Z,12.89
2017-06-02T08:28:43.303Z,12.61
2017-06-02T08:29:43.295Z,12.61
2017-06-02T08:30:42.687Z,12.31
2017-06-02T08:31:42.982Z,12.15
2017-06-02T08:32:43.276Z,12.11
2017-06-02T08:33:43.267Z,11.77
2017-06-02T08:34:43.262Z,11.59
2017-06-02T08:35:43.258Z,11.63
2017-06-02T08:36:43.250Z,11.09
2017-06-02T08:37:43.247Z,11.13
2017-06-02T08:38:43.244Z,11.2
2017-06-02T08:39:43.227Z,11.21
2017-06-02T08:40:43.224Z,11.13
2017-06-02T08:41:43.219Z,11.41
2017-06-02T08:42:43.206Z,11.39
2017-06-02T08:43:43.202Z,11.28
2017-06-02T08:44:43.190Z,11.28
2017-06-02T08:45:42.884Z,11.13
2017-06-02T08:46:43.179Z,11.19
2017-06-02T08:47:43.169Z,11.11
2017-06-02T08:48:43.169Z,11.21
2017-06-02T08:49:42.859Z,10.86
2017-06-02T08:50:43.147Z,10.87
2017-06-02T08:51:43.140Z,10.68
2017-06-02T08:52:43.133Z,10.8
2017-06-02T08:53:43.127Z,10.83
2017-06-02T08:54:43.118Z,10.93
2017-06-02T08:55:43.114Z,10.87
2017-06-02T08:56:43.110Z,11.02
2017-06-02T08:57:43.098Z,11.05
2017-06-02T08:58:43.097Z,11.09
2017-06-02T08:59:43.089Z,11.11
2017-06-02T09:00:43.116Z,11.27
2017-06-02T09:01:42.773Z,11.79
2017-06-02T09:02:43.067Z,11.79
2017-06-02T09:03:42.758Z,11.53
2017-06-02T09:04:43.053Z,11.54
2017-06-02T09:05:42.741Z,11.57
2017-06-02T09:06:43.037Z,11.81
2017-06-02T09:07:43.029Z,12.05
2017-06-02T09:08:43.022Z,12.19
2017-06-02T09:09:43.015Z,12.58
2017-06-02T09:10:43.011Z,12.87
2017-06-02T09:11:43.002Z,12.61
2017-06-02T09:12:42.995Z,12.7
2017-06-02T09:13:42.998Z,12.95
2017-06-02T09:14:42.983Z,13.06
2017-06-02T09:15:42.976Z,12.91
2017-06-02T09:16:43.045Z,12.56
2017-06-02T09:17:42.960Z,12.36
2017-06-02T09:18:42.714Z,12.44
2017-06-02T09:19:42.648Z,12.62
2017-06-02T09:20:42.944Z,12.71
2017-06-02T09:21:42.933Z,12.62
2017-06-02T09:22:42.925Z,12.55
2017-06-02T09:23:42.917Z,12.92
2017-06-02T09:24:42.915Z,13.03
2017-06-02T09:25:42.910Z,12.66
2017-06-02T09:26:42.903Z,12.55
2017-06-02T09:27:42.893Z,12.88
2017-06-02T09:28:42.586Z,12.81
2017-06-02T09:29:42.883Z,12.95
2017-06-02T09:30:42.876Z,12.77
2017-06-02T09:31:42.869Z,12.79
2017-06-02T09:32:42.864Z,13.1
2017-06-02T09:33:42.860Z,13.61
2017-06-02T09:34:42.850Z,14.2
2017-06-02T09:35:42.850Z,14.16
2017-06-02T09:36:42.839Z,14.27
2017-06-02T09:37:42.830Z,14.02
2017-06-02T09:38:42.828Z,13.91
2017-06-02T09:39:42.820Z,13.59
2017-06-02T09:40:42.215Z,13.43
2017-06-02T09:41:42.806Z,13.03
2017-06-02T09:42:42.800Z,12.59
2017-06-02T09:43:42.799Z,12.66
2017-06-02T09:44:42.804Z,12.67
2017-06-02T09:45:42.786Z,12.73
2017-06-02T09:46:42.782Z,13.1
2017-06-02T09:47:42.774Z,13.27
2017-06-02T09:48:42.772Z,12.99
2017-06-02T09:49:42.764Z,13.57
2017-06-02T09:50:42.761Z,13.46
2017-06-02T09:51:42.752Z,13.12
2017-06-02T09:52:42.747Z,13.36
2017-06-02T09:53:42.744Z,13.5
2017-06-02T09:54:42.737Z,13.91
2017-06-02T09:55:42.434Z,14.16
2017-06-02T09:56:42.728Z,14.64
2017-06-02T09:57:42.713Z,14.48
2017-06-02T09:58:42.715Z,14.48
2017-06-02T09:59:42.713Z,14.83
2017-06-02T10:00:42.399Z,14.79
2017-06-02T10:01:42.697Z,14.52
2017-06-02T10:02:42.693Z,14.86
2017-06-02T10:03:42.685Z,15.37
2017-06-02T10:04:42.737Z,16.41
2017-06-02T10:05:42.680Z,16.6
2017-06-02T10:06:42.674Z,16.95
2017-06-02T10:07:42.665Z,17.39
2017-06-02T10:08:42.664Z,17.89
2017-06-02T10:09:42.657Z,18.56
2017-06-02T10:10:42.653Z,19.16
2017-06-02T10:11:42.345Z,19.15
2017-06-02T10:12:42.647Z,18.93
2017-06-02T10:13:42.637Z,19.57
2017-06-02T10:14:42.638Z,19.6
2017-06-02T10:15:42.642Z,18.59
2017-06-02T10:16:42.634Z,17.94
2017-06-02T10:17:42.689Z,17.7
2017-06-02T10:18:42.625Z,17.84
2017-06-02T10:19:42.623Z,17.43
2017-06-02T10:20:42.316Z,16.98
2017-06-02T10:21:42.617Z,16.51
2017-06-02T10:22:42.612Z,15.01
2017-06-02T10:23:42.612Z,13.62
2017-06-02T10:24:42.608Z,12.87
2017-06-02T10:25:42.609Z,12.56
2017-06-02T10:26:42.603Z,11.75
2017-06-02T10:27:42.592Z,11.35
2017-06-02T10:28:42.590Z,10.99
2017-06-02T10:29:42.281Z,10.63
2017-06-02T10:30:42.581Z,10.35
2017-06-02T10:31:42.273Z,10.29
2017-06-02T10:32:42.572Z,9.8
2017-06-02T10:33:42.561Z,9.78
2017-06-02T10:34:42.562Z,9.6
2017-06-02T10:35:42.549Z,9.32
2017-06-02T10:36:42.540Z,9.08
2017-06-02T10:37:42.540Z,9.24
2017-06-02T10:38:42.533Z,9.26
2017-06-02T10:39:42.526Z,9.27
2017-06-02T10:40:42.517Z,9.24
2017-06-02T10:41:42.511Z,9.35
2017-06-02T10:42:42.500Z,9.22
2017-06-02T10:43:42.496Z,9.19
2017-06-02T10:44:42.491Z,9.12
2017-06-02T10:45:42.484Z,8.76
2017-06-02T10:46:42.473Z,8.73
2017-06-02T10:47:42.163Z,8.76
2017-06-02T10:48:42.456Z,8.85
2017-06-02T10:49:42.449Z,8.97
2017-06-02T10:50:42.443Z,9.06
2017-06-02T10:51:42.432Z,9.08
2017-06-02T10:52:42.427Z,9.26
2017-06-02T10:53:42.417Z,9.08
2017-06-02T10:54:42.408Z,8.71
2017-06-02T10:55:42.402Z,8.61
2017-06-02T10:56:42.395Z,8.6
2017-06-02T10:57:42.084Z,8.8
2017-06-02T10:58:42.390Z,8.97
2017-06-02T10:59:42.367Z,8.91
2017-06-02T11:00:42.065Z,8.97
2017-06-02T11:01:42.356Z,9.03
2017-06-02T11:02:42.343Z,8.98
2017-06-02T11:03:42.335Z,9.06
2017-06-02T11:04:42.331Z,9.08
2017-06-02T11:05:42.318Z,9.24
2017-06-02T11:06:42.309Z,9.42
2017-06-02T11:07:42.298Z,9.59
2017-06-02T11:08:42.293Z,9.6
2017-06-02T11:09:42.286Z,9.81
2017-06-02T11:10:42.276Z,9.75
2017-06-02T11:11:42.267Z,9.62
2017-06-02T11:12:42.261Z,9.98
2017-06-02T11:13:42.258Z,10.14
2017-06-02T11:14:42.246Z,10.29
2017-06-02T11:15:42.245Z,10.02
2017-06-02T11:16:42.246Z,9.88
2017-06-02T11:17:42.223Z,9.68
2017-06-02T11:18:42.215Z,9.65
2017-06-02T11:19:42.230Z,9.52
2017-06-02T11:20:41.897Z,9.68
2017-06-02T11:21:42.240Z,9.63
2017-06-02T11:22:42.228Z,9.81
2017-06-02T11:23:42.176Z,9.98
2017-06-02T11:24:42.165Z,10.02
2017-06-02T11:25:41.858Z,10.28
2017-06-02T11:26:42.151Z,10.51
2017-06-02T11:27:42.136Z,10.68
2017-06-02T11:28:42.134Z,10.87
2017-06-02T11:29:42.126Z,10.88
2017-06-02T11:30:42.117Z,10.65
2017-06-02T11:31:42.109Z,10.39
2017-06-02T11:32:42.107Z,9.96
2017-06-02T11:33:42.097Z,9.63
2017-06-02T11:34:41.784Z,9.08
2017-06-02T11:35:42.083Z,8.82
2017-06-02T11:36:42.074Z,8.6
2017-06-02T11:37:42.065Z,8.8
2017-06-02T11:38:42.052Z,8.88
2017-06-02T11:39:41.747Z,9.01
2017-06-02T11:40:42.039Z,9.15
2017-06-02T11:41:42.031Z,8.96
2017-06-02T11:42:42.022Z,8.58
2017-06-02T11:43:42.011Z,8.52
2017-06-02T11:44:42.005Z,8.67
2017-06-02T11:45:41.998Z,8.76
2017-06-02T11:46:41.992Z,8.63
2017-06-02T11:47:41.982Z,8.55
2017-06-02T11:48:41.973Z,8.43
2017-06-02T11:49:41.964Z,8.5
2017-06-02T11:50:41.955Z,8.75
2017-06-02T11:51:41.958Z,8.65
2017-06-02T11:52:41.941Z,8.61
2017-06-02T11:53:41.926Z,8.64
2017-06-02T11:54:41.922Z,8.76
2017-06-02T11:55:41.912Z,8.78
2017-06-02T11:56:41.906Z,8.85
2017-06-02T11:57:41.899Z,8.93
2017-06-02T11:58:41.885Z,8.96
2017-06-02T11:59:41.883Z,9.13
2017-06-02T12:00:41.867Z,9.06
2017-06-02T12:01:41.858Z,9.42
2017-06-02T12:02:41.845Z,9.55
2017-06-02T12:03:41.843Z,9.67
2017-06-02T12:04:41.831Z,9.85
2017-06-02T12:05:41.822Z,9.91
2017-06-02T12:06:41.510Z,9.8
2017-06-02T12:07:41.806Z,9.95
2017-06-02T12:08:41.797Z,10.01
2017-06-02T12:09:41.791Z,10.11
2017-06-02T12:10:41.779Z,10.43
2017-06-02T12:11:41.772Z,10.7
2017-06-02T12:12:41.764Z,11.6
2017-06-02T12:13:41.458Z,12.59
2017-06-02T12:14:41.757Z,13.29
2017-06-02T12:15:41.736Z,13.29
2017-06-02T12:16:41.733Z,13.32
2017-06-02T12:17:41.730Z,13.35
2017-06-02T12:18:41.718Z,12.99
2017-06-02T12:19:41.714Z,12.11
2017-06-02T12:20:41.711Z,12.44
2017-06-02T12:21:41.703Z,12.3
2017-06-02T12:22:41.697Z,11.75
2017-06-02T12:23:41.689Z,11.67
2017-06-02T12:24:41.675Z,11.42
2017-06-02T12:25:41.670Z,11.42
2017-06-02T12:26:41.663Z,11.67
2017-06-02T12:27:41.652Z,12.62
2017-06-02T12:28:41.648Z,13.94
2017-06-02T12:29:41.640Z,14.91
2017-06-02T12:30:41.632Z,15.37
2017-06-02T12:31:41.623Z,14.45
2017-06-02T12:32:41.616Z,14.35
2017-06-02T12:33:41.609Z,13.07
2017-06-02T12:34:41.614Z,12.92
2017-06-02T12:35:41.602Z,12.92
2017-06-02T12:36:41.593Z,13.96
2017-06-02T12:37:41.581Z,14.31
2017-06-02T12:38:41.577Z,14.44
2017-06-02T12:39:41.577Z,14.86
2017-06-02T12:40:41.566Z,15.91
2017-06-02T12:41:41.559Z,16.37
2017-06-02T12:42:41.551Z,16.8
2017-06-02T12:43:41.553Z,17.36
2017-06-02T12:44:41.543Z,17.58
2017-06-02T12:45:41.536Z,17.68
2017-06-02T12:46:41.532Z,17.98
2017-06-02T12:47:41.533Z,17.57
2017-06-02T12:48:41.531Z,17.05
2017-06-02T12:49:41.521Z,17.38
2017-06-02T12:50:41.217Z,17.8
2017-06-02T12:51:41.515Z,17.89
2017-06-02T12:52:41.512Z,18.11
2017-06-02T12:53:41.499Z,17.15
2017-06-02T12:54:41.502Z,16.92
2017-06-02T12:55:41.498Z,16.84
2017-06-02T12:56:41.189Z,17.02
2017-06-02T12:57:41.189Z,17.7
2017-06-02T12:58:41.484Z,17.51
2017-06-02T12:59:41.483Z,16.98
2017-06-02T13:00:41.483Z,16.85
2017-06-02T13:01:41.474Z,16.9
2017-06-02T13:02:41.470Z,17.03
2017-06-02T13:03:41.466Z,17.42
2017-06-02T13:04:41.465Z,17.28
2017-06-02T13:05:41.157Z,16.63
2017-06-02T13:06:41.454Z,16.42
2017-06-02T13:07:41.146Z,16.37
2017-06-02T13:08:41.453Z,16.18
2017-06-02T13:09:41.441Z,16.52
2017-06-02T13:10:41.432Z,15.04
2017-06-02T13:11:41.436Z,13.62
2017-06-02T13:12:41.446Z,12.88
2017-06-02T13:13:41.121Z,12.15